Obea — FAA2295 — position and weather

sailwx.info

Track history (hours):
 
Tides and Currents Weather Stations Pressure Air Temp Water Temp Dewpoint Dewpoint Depression Visibility Wind Speed Wind Dir Waves Ship Positions

Obea

Last reported at 2017-Nov-16 13:58 UTC. Time now 2017-Nov-24 00:26 UTC.
Position N 46°09' W 001°09'.

Type: Sailing vessel. MMSI: 227100580.

Date/timePositionNaut miles runAvg speedWind from/ knotsBaromVisibWave heightAir tempDewpointWater temp
2017-Nov-16 13:58N 46°09' W 001°09'1 0.0
2017-Nov-15 21:28N 46°09' W 001°10'0 0.1
2017-Nov-15 20:59N 46°09' W 001°10'1 3.0
2017-Nov-15 20:30N 46°08' W 001°12'2 4.4
2017-Nov-15 20:00N 46°09' W 001°15'3 5.5
2017-Nov-15 19:30N 46°12' W 001°16'4 7.5
2017-Nov-15 19:00N 46°14' W 001°20'4 7.0
2017-Nov-15 18:30N 46°16' W 001°25'14 7.7
2017-Nov-15 16:42N 46°22' W 001°42'2 8.8
2017-Nov-15 16:29N 46°23' W 001°45'4 9.0
2017-Nov-15 16:00N 46°26' W 001°50'5 9.4
2017-Nov-15 15:30N 46°29' W 001°55'64 9.0
2017-Nov-15 08:25N 47°21' W 002°49'4 8.2
2017-Nov-15 07:59N 47°25' W 002°51'4 8.1
2017-Nov-15 07:29N 47°28' W 002°54'4 8.6
2017-Nov-15 07:00N 47°32' W 002°55'1 2.4
2017-Nov-15 06:27N 47°33' W 002°54'0 0.0
2017-Nov-15 06:00N 47°33' W 002°54'0 0.0
2017-Nov-15 05:28N 47°33' W 002°54'0 0.0
2017-Nov-14 18:18N 47°33' W 002°54'0 0.0
2017-Nov-14 17:42N 47°33' W 002°54'0 0.0
2017-Nov-14 17:30N 47°33' W 002°54'0 0.0
2017-Nov-14 17:00N 47°33' W 002°54'0 0.0
2017-Nov-14 16:30N 47°33' W 002°54'0 0.0
2017-Nov-14 16:00N 47°33' W 002°54'  
Track history (hours):
 
Tides and Currents Weather Stations Pressure Air Temp Water Temp Dewpoint Dewpoint Depression Visibility Wind Speed Wind Dir Waves Ship Positions

Obea

Last reported at 2017-Nov-16 13:58 UTC. Time now 2017-Nov-24 00:26 UTC.
Position N 46°09' W 001°09'.

Type: Sailing vessel. MMSI: 227100580.

Date/timePositionNaut miles runAvg speedWind from/ knotsBaromVisibWave heightAir tempDewpointWater temp
2017-Nov-16 13:58N 46°09' W 001°09'1 0.0
2017-Nov-15 21:28N 46°09' W 001°10'0 0.1
2017-Nov-15 20:59N 46°09' W 001°10'1 3.0
2017-Nov-15 20:30N 46°08' W 001°12'2 4.4
2017-Nov-15 20:00N 46°09' W 001°15'3 5.5
2017-Nov-15 19:30N 46°12' W 001°16'4 7.5
2017-Nov-15 19:00N 46°14' W 001°20'4 7.0
2017-Nov-15 18:30N 46°16' W 001°25'14 7.7
2017-Nov-15 16:42N 46°22' W 001°42'2 8.8
2017-Nov-15 16:29N 46°23' W 001°45'4 9.0
2017-Nov-15 16:00N 46°26' W 001°50'5 9.4
2017-Nov-15 15:30N 46°29' W 001°55'64 9.0
2017-Nov-15 08:25N 47°21' W 002°49'4 8.2
2017-Nov-15 07:59N 47°25' W 002°51'4 8.1
2017-Nov-15 07:29N 47°28' W 002°54'4 8.6
2017-Nov-15 07:00N 47°32' W 002°55'1 2.4
2017-Nov-15 06:27N 47°33' W 002°54'0 0.0
2017-Nov-15 06:00N 47°33' W 002°54'0 0.0
2017-Nov-15 05:28N 47°33' W 002°54'0 0.0
2017-Nov-14 18:18N 47°33' W 002°54'0 0.0
2017-Nov-14 17:42N 47°33' W 002°54'0 0.0
2017-Nov-14 17:30N 47°33' W 002°54'0 0.0
2017-Nov-14 17:00N 47°33' W 002°54'0 0.0
2017-Nov-14 16:30N 47°33' W 002°54'0 0.0
2017-Nov-14 16:00N 47°33' W 002°54'  

Dump ship's entire track history